ASN logo
Accident
Last updated: 20 October 2017
Statuts:Enquête Officielle
Date:samedi 2 janvier 2016
Heure:12:05
Type/Sous-type:Silhouette image of generic C208 model; specific model in this crash may look slightly different
Cessna 208B Grand Caravan
Compagnie:Wright Air Service
Immatriculation: N540ME
Numéro de série: 208B-0540
Année de Fabrication: 1996
Heures de vol:19555
Moteurs: 1 Pratt & Whitney Canada PT6A-114A
Equipage:victimes: 0 / à bord: 1
Passagers:victimes: 0 / à bord: 7
Total:victimes: 0 / à bord: 8
Dégats de l'appareil: Substantiels
Conséquences: Written off (damaged beyond repair)
Lieu de l'accident:10 km (6.3 milles) SW of Anaktuvuk Pass Airport, AK (AKP) (   Etats-Unis d'Amérique)
Phase de vol: En vol (ENR)
Nature:Transport de Passagers Nat.
Aéroport de départ:Fairbanks International Airport, AK (FAI/PAFA), Etats-Unis d'Amérique
Aéroport de destination:Anaktuvuk Pass Airport, AK (AKP/PAKP), Etats-Unis d'Amérique
Détails:
The Cessna 208B Grand Caravan airplane, N540ME, sustained substantial damage after impacting terrain about 6 miles southwest of the Anaktuvuk Pass Airport, Alaska. Of the eight people on board, the pilot and four passengers sustained serious injuries, and three passengers sustained minor injuries. Visual meteorological conditions (VMC) prevailed at the Anaktuvuk Pass Airport at the time of the accident. The flight departed from the Fairbanks Airport, about 10:30, destined for Anaktuvuk Pass.
The pilot stated that he was flying along the John's River about 2,500 feet msl, 500 feet above ground level (agl) while en route to Anaktuvuk Pass Airport (AKP). About 10 miles from the airport, he began to climb to airport traffic pattern altitude and maintain a flight track on the east side of the river valley to conduct a straight-in approach to runway 2 at AKP. Although some ice was present on the windshield, the deice/anti-ice equipment was operating as designed, and the windshield hot plate remained free of contamination. He stated that due to the overcast skies and snow covered ground, a flat light condition was present.
The aircraft impacted an area of snow-covered tundra, at an elevation of about 2,500 feet msl. The top of the ridge where the airplane impacted is at an approximate elevation of 3,000 feet msl. From the initial point of impact, the airplane traveled about 300 feet before coming to rest in an upright position. The airplane sustained substantial damage to the fuselage and wings.
Immediately following the accident, a passenger utilized a cellular phone to call for rescue from Anaktuvuk Pass residents. About 20 minutes after the call, the airplane was located and rescue personnel began extricating passengers and transporting them via snow machine to Anaktuvuk Pass for medical attention.

Probable Cause:

PROBABLE CAUSE: "The pilot’s continued flight into deteriorating, flat light weather conditions, which resulted in impact with mountainous, snow-covered terrain."

Accident investigation:
Investigating agency: NTSB
Status: Investigation completed
Duration: 1 year and 8 months
Accident number: ANC16LA012
Download report: Final report

Sources:
» ADN
» FAA
» KTVA

METAR Weather report:
21:16 UTC / 12:16 local time:
PAKP 022116Z AUTO 34003KT 4SM FEW035 OVC042 M07/M11 A2902 RMK AO1

21:36 UTC / 12:36 local time:
PAKP 022136Z AUTO 18007KT 6SM SCT034 BKN043 OVC070 M07/M11 A2903 RMK AO1

21:56 UTC / 12:56 local time:
PAKP 022156Z AUTO 14005KT 6SM BKN050 OVC065 M07/M11 A2902 RMK AO1

22:16 UTC / 13:16 local time:
PAKP 022216Z AUTO 00000KT 10SM BKN042 OVC050 M06/M09 A2902 RMK AO1

23:36 UTC / 14:36 local time:
PAKP 022336Z AUTO 00000KT 4SM BKN035 OVC043 M06/M09 A2902 RMK AO1


Photos

photo of Cessna 208B Grand Caravan N540ME
Add your photo of this accident or aircraft
 

Video, social media

Plan
Ce plan montre l'aéroport de départ ainsi que la supposée destination du vol. La ligne fixe reliant les deux aéroports n'est pas le plan de vol exact.
La distance entre Fairbanks International Airport, AK et Anaktuvuk Pass Airport, AK est de 404 km (253 miles).
Accident location: Approximate; accuracy within a few kilometers.

Les informations ci-dessus ne représentent pas l'opinion de la 'Flight Safety Foundation' ou de 'Aviation Safety Network' sur les causes de l'accident. Ces informations prélimimaires sont basées sur les faits tel qu'ils sont connus à ce jour.
languages: languages

Share